Serbakul, Russia
Current Conditions -  °F | °C
As of 8:00 AM on Monday 22 Dec 2014 (Local Time) from UNOO Reporting Station
Broken Clouds Broken Clouds  
Wind Chill: 20°   Ceiling: 1500
Heat Index: 28°   Visibility: 6mi
Dew Point: 23°   Wind: 9mph
Humidity: 80%   Direction: 220°SW
Pressure: 29.97"   Gusts: NA
Location:  54.63°N, 72.43°E
Report Text: UNOO 220200Z 22004MPS 9999 BKN015 BKN050 M02/M05 Q1015 25490535NOSIG RMK QFE753
Loading
Personal Weather Stations






























Interactive Weather Map New forecast layout! Learn more

10-Day Weather Forecast

Advertisements
Track Severe Weather on mobile